sensor_id;sensor_type;location;lat;lon;timestamp;P1;durP1;ratioP1;P2;durP2;ratioP2
28862;SDS011;15994;51.796;13.006;2024-03-23T00:55:39;10.95;;;6.13;;
28862;SDS011;15994;51.796;13.006;2024-03-23T00:58:05;12.20;;;5.30;;
28862;SDS011;15994;51.796;13.006;2024-03-23T01:00:32;10.32;;;5.00;;
28862;SDS011;15994;51.796;13.006;2024-03-23T01:02:58;9.73;;;5.05;;
28862;SDS011;15994;51.796;13.006;2024-03-23T01:05:25;9.73;;;4.10;;
28862;SDS011;15994;51.796;13.006;2024-03-23T01:07:51;6.80;;;3.83;;
28862;SDS011;15994;51.796;13.006;2024-03-23T01:10:18;10.35;;;4.57;;
28862;SDS011;15994;51.796;13.006;2024-03-23T01:12:44;7.88;;;4.25;;
28862;SDS011;15994;51.796;13.006;2024-03-23T01:15:11;11.15;;;4.78;;
28862;SDS011;15994;51.796;13.006;2024-03-23T01:17:37;8.65;;;4.30;;
28862;SDS011;15994;51.796;13.006;2024-03-23T01:20:04;11.48;;;4.25;;
28862;SDS011;15994;51.796;13.006;2024-03-23T01:22:31;9.73;;;4.30;;
28862;SDS011;15994;51.796;13.006;2024-03-23T01:24:58;10.57;;;4.30;;
28862;SDS011;15994;51.796;13.006;2024-03-23T01:27:24;11.43;;;4.28;;
28862;SDS011;15994;51.796;13.006;2024-03-23T01:29:51;10.90;;;4.30;;
28862;SDS011;15994;51.796;13.006;2024-03-23T01:32:17;10.48;;;4.57;;
28862;SDS011;15994;51.796;13.006;2024-03-23T01:34:44;10.13;;;4.35;;
28862;SDS011;15994;51.796;13.006;2024-03-23T01:37:10;11.85;;;4.40;;
28862;SDS011;15994;51.796;13.006;2024-03-23T01:39:37;14.73;;;4.88;;
28862;SDS011;15994;51.796;13.006;2024-03-23T01:42:03;13.52;;;4.50;;
28862;SDS011;15994;51.796;13.006;2024-03-23T01:44:30;19.40;;;5.00;;
28862;SDS011;15994;51.796;13.006;2024-03-23T01:46:56;14.48;;;4.55;;
28862;SDS011;15994;51.796;13.006;2024-03-23T01:49:23;15.68;;;4.68;;
28862;SDS011;15994;51.796;13.006;2024-03-23T01:51:50;17.98;;;4.70;;
28862;SDS011;15994;51.796;13.006;2024-03-23T01:54:17;21.77;;;4.45;;
28862;SDS011;15994;51.796;13.006;2024-03-23T01:56:43;21.75;;;3.90;;
28862;SDS011;15994;51.796;13.006;2024-03-23T01:59:10;12.88;;;4.00;;
28862;SDS011;15994;51.796;13.006;2024-03-23T02:01:36;17.20;;;3.92;;
28862;SDS011;15994;51.796;13.006;2024-03-23T02:04:03;20.75;;;3.80;;
28862;SDS011;15994;51.796;13.006;2024-03-23T02:06:30;18.63;;;4.00;;
28862;SDS011;15994;51.796;13.006;2024-03-23T02:08:57;17.85;;;4.13;;
28862;SDS011;15994;51.796;13.006;2024-03-23T02:11:23;24.80;;;4.03;;
28862;SDS011;15994;51.796;13.006;2024-03-23T02:13:50;19.65;;;3.60;;
28862;SDS011;15994;51.796;13.006;2024-03-23T02:16:16;19.00;;;3.40;;
28862;SDS011;15994;51.796;13.006;2024-03-23T02:18:43;20.42;;;3.67;;
28862;SDS011;15994;51.796;13.006;2024-03-23T02:21:09;15.88;;;3.40;;
28862;SDS011;15994;51.796;13.006;2024-03-23T02:23:36;19.90;;;4.13;;
28862;SDS011;15994;51.796;13.006;2024-03-23T02:26:02;20.00;;;4.10;;
28862;SDS011;15994;51.796;13.006;2024-03-23T02:28:29;16.80;;;3.50;;
28862;SDS011;15994;51.796;13.006;2024-03-23T02:30:55;15.75;;;3.50;;
28862;SDS011;15994;51.796;13.006;2024-03-23T02:33:22;18.38;;;3.35;;
28862;SDS011;15994;51.796;13.006;2024-03-23T02:35:48;21.35;;;3.63;;
28862;SDS011;15994;51.796;13.006;2024-03-23T02:38:15;19.02;;;3.17;;
28862;SDS011;15994;51.796;13.006;2024-03-23T02:40:41;18.58;;;3.40;;
28862;SDS011;15994;51.796;13.006;2024-03-23T02:43:08;15.57;;;3.60;;
28862;SDS011;15994;51.796;13.006;2024-03-23T02:45:34;20.23;;;3.50;;
28862;SDS011;15994;51.796;13.006;2024-03-23T02:48:01;14.50;;;3.25;;
28862;SDS011;15994;51.796;13.006;2024-03-23T02:50:40;17.88;;;3.00;;
28862;SDS011;15994;51.796;13.006;2024-03-23T02:53:07;17.70;;;3.38;;
28862;SDS011;15994;51.796;13.006;2024-03-23T02:55:33;15.55;;;3.05;;
28862;SDS011;15994;51.796;13.006;2024-03-23T02:58:00;19.27;;;3.17;;
28862;SDS011;15994;51.796;13.006;2024-03-23T03:00:27;20.50;;;3.50;;
28862;SDS011;15994;51.796;13.006;2024-03-23T03:02:54;24.40;;;3.05;;
28862;SDS011;15994;51.796;13.006;2024-03-23T03:05:20;18.42;;;3.35;;
28862;SDS011;15994;51.796;13.006;2024-03-23T03:07:47;18.25;;;3.28;;
28862;SDS011;15994;51.796;13.006;2024-03-23T03:10:13;16.05;;;3.28;;
28862;SDS011;15994;51.796;13.006;2024-03-23T03:12:40;15.90;;;3.17;;
28862;SDS011;15994;51.796;13.006;2024-03-23T03:15:07;19.13;;;3.53;;
28862;SDS011;15994;51.796;13.006;2024-03-23T03:17:35;17.50;;;3.20;;
28862;SDS011;15994;51.796;13.006;2024-03-23T03:20:01;15.43;;;3.05;;
28862;SDS011;15994;51.796;13.006;2024-03-23T03:22:29;14.20;;;3.08;;
28862;SDS011;15994;51.796;13.006;2024-03-23T03:24:55;16.73;;;3.53;;
28862;SDS011;15994;51.796;13.006;2024-03-23T03:27:22;19.05;;;4.22;;
28862;SDS011;15994;51.796;13.006;2024-03-23T03:29:49;14.32;;;3.63;;
28862;SDS011;15994;51.796;13.006;2024-03-23T03:32:16;22.90;;;3.63;;
28862;SDS011;15994;51.796;13.006;2024-03-23T03:34:42;16.52;;;3.05;;
28862;SDS011;15994;51.796;13.006;2024-03-23T03:37:09;18.38;;;2.95;;
28862;SDS011;15994;51.796;13.006;2024-03-23T03:39:35;21.95;;;3.67;;
28862;SDS011;15994;51.796;13.006;2024-03-23T03:42:02;18.05;;;2.92;;
28862;SDS011;15994;51.796;13.006;2024-03-23T03:44:31;20.60;;;4.18;;
28862;SDS011;15994;51.796;13.006;2024-03-23T03:46:58;13.80;;;2.88;;
28862;SDS011;15994;51.796;13.006;2024-03-23T03:49:24;17.92;;;3.45;;
28862;SDS011;15994;51.796;13.006;2024-03-23T03:51:51;22.88;;;3.67;;
28862;SDS011;15994;51.796;13.006;2024-03-23T03:54:17;18.23;;;3.50;;
28862;SDS011;15994;51.796;13.006;2024-03-23T03:56:44;22.75;;;3.63;;
28862;SDS011;15994;51.796;13.006;2024-03-23T03:59:10;15.93;;;3.53;;
28862;SDS011;15994;51.796;13.006;2024-03-23T04:01:37;18.33;;;3.30;;
28862;SDS011;15994;51.796;13.006;2024-03-23T04:04:03;19.25;;;3.15;;
28862;SDS011;15994;51.796;13.006;2024-03-23T04:06:29;17.67;;;2.92;;
28862;SDS011;15994;51.796;13.006;2024-03-23T04:08:56;18.45;;;3.00;;
28862;SDS011;15994;51.796;13.006;2024-03-23T04:11:22;15.55;;;3.10;;
28862;SDS011;15994;51.796;13.006;2024-03-23T04:13:48;13.13;;;2.85;;
28862;SDS011;15994;51.796;13.006;2024-03-23T04:16:28;15.20;;;2.85;;
28862;SDS011;15994;51.796;13.006;2024-03-23T04:18:54;17.67;;;3.08;;
28862;SDS011;15994;51.796;13.006;2024-03-23T04:21:21;21.35;;;3.55;;
28862;SDS011;15994;51.796;13.006;2024-03-23T04:23:47;26.70;;;3.88;;
28862;SDS011;15994;51.796;13.006;2024-03-23T04:26:15;22.00;;;3.80;;
28862;SDS011;15994;51.796;13.006;2024-03-23T04:28:41;15.15;;;3.08;;
28862;SDS011;15994;51.796;13.006;2024-03-23T04:31:08;15.40;;;3.20;;
28862;SDS011;15994;51.796;13.006;2024-03-23T04:33:34;16.58;;;3.22;;
28862;SDS011;15994;51.796;13.006;2024-03-23T04:36:00;22.65;;;3.53;;
28862;SDS011;15994;51.796;13.006;2024-03-23T04:38:27;20.55;;;3.55;;
28862;SDS011;15994;51.796;13.006;2024-03-23T04:40:55;16.70;;;3.40;;
28862;SDS011;15994;51.796;13.006;2024-03-23T04:43:22;24.80;;;3.97;;
28862;SDS011;15994;51.796;13.006;2024-03-23T04:45:49;13.23;;;3.08;;
28862;SDS011;15994;51.796;13.006;2024-03-23T04:48:16;17.38;;;3.88;;
28862;SDS011;15994;51.796;13.006;2024-03-23T04:50:43;20.13;;;3.33;;
28862;SDS011;15994;51.796;13.006;2024-03-23T04:53:10;17.10;;;2.90;;
28862;SDS011;15994;51.796;13.006;2024-03-23T04:55:37;14.75;;;2.85;;
28862;SDS011;15994;51.796;13.006;2024-03-23T04:58:04;16.30;;;3.53;;
28862;SDS011;15994;51.796;13.006;2024-03-23T05:00:30;17.38;;;3.63;;
28862;SDS011;15994;51.796;13.006;2024-03-23T05:02:57;17.50;;;3.67;;
28862;SDS011;15994;51.796;13.006;2024-03-23T05:05:23;18.77;;;3.92;;
28862;SDS011;15994;51.796;13.006;2024-03-23T05:07:49;18.50;;;3.92;;
28862;SDS011;15994;51.796;13.006;2024-03-23T05:10:15;15.35;;;3.35;;
28862;SDS011;15994;51.796;13.006;2024-03-23T05:12:43;19.45;;;3.53;;
28862;SDS011;15994;51.796;13.006;2024-03-23T05:15:10;18.73;;;3.88;;
28862;SDS011;15994;51.796;13.006;2024-03-23T05:17:37;16.85;;;3.90;;
28862;SDS011;15994;51.796;13.006;2024-03-23T05:20:04;16.08;;;3.97;;
28862;SDS011;15994;51.796;13.006;2024-03-23T05:22:34;22.23;;;3.92;;
28862;SDS011;15994;51.796;13.006;2024-03-23T05:25:00;21.63;;;3.70;;
28862;SDS011;15994;51.796;13.006;2024-03-23T05:27:29;16.92;;;3.60;;
28862;SDS011;15994;51.796;13.006;2024-03-23T05:29:55;20.65;;;3.50;;
28862;SDS011;15994;51.796;13.006;2024-03-23T05:32:22;16.23;;;3.45;;
28862;SDS011;15994;51.796;13.006;2024-03-23T05:34:48;22.70;;;3.70;;
28862;SDS011;15994;51.796;13.006;2024-03-23T05:37:20;17.13;;;3.25;;
28862;SDS011;15994;51.796;13.006;2024-03-23T05:39:46;20.15;;;3.20;;
28862;SDS011;15994;51.796;13.006;2024-03-23T05:42:14;19.73;;;3.80;;
28862;SDS011;15994;51.796;13.006;2024-03-23T05:44:40;17.88;;;3.35;;
28862;SDS011;15994;51.796;13.006;2024-03-23T05:47:07;19.42;;;3.55;;
28862;SDS011;15994;51.796;13.006;2024-03-23T05:49:33;17.95;;;3.42;;
28862;SDS011;15994;51.796;13.006;2024-03-23T05:52:00;13.00;;;3.10;;
28862;SDS011;15994;51.796;13.006;2024-03-23T05:54:28;15.70;;;3.22;;
28862;SDS011;15994;51.796;13.006;2024-03-23T05:56:55;15.40;;;3.13;;
28862;SDS011;15994;51.796;13.006;2024-03-23T05:59:21;20.45;;;3.60;;
28862;SDS011;15994;51.796;13.006;2024-03-23T06:01:48;19.48;;;3.17;;
28862;SDS011;15994;51.796;13.006;2024-03-23T06:04:14;13.95;;;3.10;;
28862;SDS011;15994;51.796;13.006;2024-03-23T06:06:41;16.45;;;3.10;;
28862;SDS011;15994;51.796;13.006;2024-03-23T06:09:07;17.90;;;3.40;;
28862;SDS011;15994;51.796;13.006;2024-03-23T06:11:34;17.05;;;3.33;;
28862;SDS011;15994;51.796;13.006;2024-03-23T06:14:00;16.05;;;3.20;;
28862;SDS011;15994;51.796;13.006;2024-03-23T06:16:27;18.52;;;3.95;;
28862;SDS011;15994;51.796;13.006;2024-03-23T06:18:53;15.02;;;3.28;;
28862;SDS011;15994;51.796;13.006;2024-03-23T06:21:20;21.67;;;3.90;;
28862;SDS011;15994;51.796;13.006;2024-03-23T06:23:50;18.13;;;3.00;;
28862;SDS011;15994;51.796;13.006;2024-03-23T06:26:18;17.20;;;3.25;;
28862;SDS011;15994;51.796;13.006;2024-03-23T06:28:44;16.92;;;3.47;;
28862;SDS011;15994;51.796;13.006;2024-03-23T06:31:12;18.70;;;3.35;;
28862;SDS011;15994;51.796;13.006;2024-03-23T06:33:38;18.58;;;3.90;;
28862;SDS011;15994;51.796;13.006;2024-03-23T06:36:06;18.67;;;4.15;;
28862;SDS011;15994;51.796;13.006;2024-03-23T06:38:32;18.98;;;3.60;;
28862;SDS011;15994;51.796;13.006;2024-03-23T06:40:59;21.60;;;3.97;;
28862;SDS011;15994;51.796;13.006;2024-03-23T06:43:25;19.35;;;3.85;;
28862;SDS011;15994;51.796;13.006;2024-03-23T06:45:55;20.95;;;4.15;;
28862;SDS011;15994;51.796;13.006;2024-03-23T06:48:21;16.92;;;3.75;;
28862;SDS011;15994;51.796;13.006;2024-03-23T06:50:48;17.52;;;3.53;;
28862;SDS011;15994;51.796;13.006;2024-03-23T06:53:14;18.08;;;3.83;;
28862;SDS011;15994;51.796;13.006;2024-03-23T06:55:41;18.63;;;3.53;;
28862;SDS011;15994;51.796;13.006;2024-03-23T06:58:08;19.00;;;3.90;;
28862;SDS011;15994;51.796;13.006;2024-03-23T07:00:35;20.38;;;4.43;;
28862;SDS011;15994;51.796;13.006;2024-03-23T07:03:01;18.77;;;4.65;;
28862;SDS011;15994;51.796;13.006;2024-03-23T07:05:29;19.73;;;4.10;;
28862;SDS011;15994;51.796;13.006;2024-03-23T07:07:55;20.52;;;4.07;;
28862;SDS011;15994;51.796;13.006;2024-03-23T07:10:22;16.35;;;3.97;;
28862;SDS011;15994;51.796;13.006;2024-03-23T07:12:48;18.60;;;4.28;;
28862;SDS011;15994;51.796;13.006;2024-03-23T07:15:15;22.10;;;4.35;;
28862;SDS011;15994;51.796;13.006;2024-03-23T07:17:41;22.08;;;4.40;;
28862;SDS011;15994;51.796;13.006;2024-03-23T07:20:08;16.63;;;3.80;;
28862;SDS011;15994;51.796;13.006;2024-03-23T07:22:35;22.77;;;4.18;;
28862;SDS011;15994;51.796;13.006;2024-03-23T07:25:02;17.55;;;3.65;;
28862;SDS011;15994;51.796;13.006;2024-03-23T07:27:29;16.70;;;4.30;;
28862;SDS011;15994;51.796;13.006;2024-03-23T07:29:55;19.70;;;4.60;;
28862;SDS011;15994;51.796;13.006;2024-03-23T07:32:22;17.23;;;4.55;;
28862;SDS011;15994;51.796;13.006;2024-03-23T07:34:48;13.23;;;3.70;;
28862;SDS011;15994;51.796;13.006;2024-03-23T07:37:15;19.25;;;4.50;;
28862;SDS011;15994;51.796;13.006;2024-03-23T07:39:41;15.05;;;3.63;;
28862;SDS011;15994;51.796;13.006;2024-03-23T07:42:08;16.08;;;3.00;;
28862;SDS011;15994;51.796;13.006;2024-03-23T07:44:34;9.57;;;2.58;;
28862;SDS011;15994;51.796;13.006;2024-03-23T07:47:02;9.30;;;2.60;;
28862;SDS011;15994;51.796;13.006;2024-03-23T07:49:28;8.27;;;2.05;;
28862;SDS011;15994;51.796;13.006;2024-03-23T07:51:55;8.32;;;2.20;;
28862;SDS011;15994;51.796;13.006;2024-03-23T07:54:21;5.32;;;1.75;;
28862;SDS011;15994;51.796;13.006;2024-03-23T07:56:48;6.97;;;1.83;;
28862;SDS011;15994;51.796;13.006;2024-03-23T07:59:14;5.45;;;1.80;;
28862;SDS011;15994;51.796;13.006;2024-03-23T08:01:41;6.90;;;1.90;;
28862;SDS011;15994;51.796;13.006;2024-03-23T08:04:07;7.30;;;1.80;;
28862;SDS011;15994;51.796;13.006;2024-03-23T08:06:34;9.82;;;2.10;;
28862;SDS011;15994;51.796;13.006;2024-03-23T08:09:00;9.40;;;2.00;;
28862;SDS011;15994;51.796;13.006;2024-03-23T08:11:30;9.88;;;1.63;;
28862;SDS011;15994;51.796;13.006;2024-03-23T08:13:57;8.57;;;1.73;;
28862;SDS011;15994;51.796;13.006;2024-03-23T08:16:24;9.55;;;2.17;;
28862;SDS011;15994;51.796;13.006;2024-03-23T08:18:51;6.00;;;1.70;;
28862;SDS011;15994;51.796;13.006;2024-03-23T08:21:17;14.45;;;2.45;;
28862;SDS011;15994;51.796;13.006;2024-03-23T08:23:44;14.38;;;2.10;;
28862;SDS011;15994;51.796;13.006;2024-03-23T08:26:11;8.50;;;1.73;;
28862;SDS011;15994;51.796;13.006;2024-03-23T08:28:38;10.95;;;2.08;;
28862;SDS011;15994;51.796;13.006;2024-03-23T08:31:06;9.60;;;1.80;;
28862;SDS011;15994;51.796;13.006;2024-03-23T08:33:33;12.98;;;2.30;;
28862;SDS011;15994;51.796;13.006;2024-03-23T08:36:03;11.80;;;2.58;;
28862;SDS011;15994;51.796;13.006;2024-03-23T08:38:30;11.20;;;2.20;;
28862;SDS011;15994;51.796;13.006;2024-03-23T08:41:00;8.18;;;1.75;;
28862;SDS011;15994;51.796;13.006;2024-03-23T08:43:28;6.43;;;1.60;;
28862;SDS011;15994;51.796;13.006;2024-03-23T08:46:02;6.53;;;1.30;;
28862;SDS011;15994;51.796;13.006;2024-03-23T08:48:29;6.35;;;1.75;;
28862;SDS011;15994;51.796;13.006;2024-03-23T08:51:05;6.25;;;1.45;;
28862;SDS011;15994;51.796;13.006;2024-03-23T08:53:33;6.10;;;1.30;;
28862;SDS011;15994;51.796;13.006;2024-03-23T08:55:59;5.15;;;1.30;;
28862;SDS011;15994;51.796;13.006;2024-03-23T08:58:27;5.57;;;1.30;;
28862;SDS011;15994;51.796;13.006;2024-03-23T09:00:54;4.18;;;1.23;;
28862;SDS011;15994;51.796;13.006;2024-03-23T09:03:21;7.28;;;2.00;;
28862;SDS011;15994;51.796;13.006;2024-03-23T09:05:47;6.95;;;1.80;;
28862;SDS011;15994;51.796;13.006;2024-03-23T09:08:14;6.00;;;2.13;;
28862;SDS011;15994;51.796;13.006;2024-03-23T09:10:41;7.93;;;2.50;;
28862;SDS011;15994;51.796;13.006;2024-03-23T09:13:08;7.18;;;1.48;;
28862;SDS011;15994;51.796;13.006;2024-03-23T09:15:34;7.53;;;2.03;;
28862;SDS011;15994;51.796;13.006;2024-03-23T09:18:02;5.47;;;2.55;;
28862;SDS011;15994;51.796;13.006;2024-03-23T09:20:28;5.45;;;2.40;;
28862;SDS011;15994;51.796;13.006;2024-03-23T09:22:55;5.63;;;1.88;;
28862;SDS011;15994;51.796;13.006;2024-03-23T09:25:21;10.32;;;2.63;;
28862;SDS011;15994;51.796;13.006;2024-03-23T09:27:48;8.27;;;1.88;;
28862;SDS011;15994;51.796;13.006;2024-03-23T09:30:14;12.82;;;2.75;;
28862;SDS011;15994;51.796;13.006;2024-03-23T09:32:42;7.15;;;1.85;;
28862;SDS011;15994;51.796;13.006;2024-03-23T09:35:08;13.00;;;1.90;;
28862;SDS011;15994;51.796;13.006;2024-03-23T09:37:35;8.43;;;1.75;;
28862;SDS011;15994;51.796;13.006;2024-03-23T09:40:01;9.27;;;2.20;;
28862;SDS011;15994;51.796;13.006;2024-03-23T09:42:30;5.95;;;2.00;;
28862;SDS011;15994;51.796;13.006;2024-03-23T09:44:57;13.20;;;2.10;;
28862;SDS011;15994;51.796;13.006;2024-03-23T09:47:24;8.63;;;1.85;;
28862;SDS011;15994;51.796;13.006;2024-03-23T09:49:50;4.00;;;2.00;;
28862;SDS011;15994;51.796;13.006;2024-03-23T09:52:17;5.38;;;2.10;;
28862;SDS011;15994;51.796;13.006;2024-03-23T09:54:43;5.38;;;1.85;;
28862;SDS011;15994;51.796;13.006;2024-03-23T09:57:10;6.93;;;2.13;;
28862;SDS011;15994;51.796;13.006;2024-03-23T09:59:36;4.78;;;1.70;;
28862;SDS011;15994;51.796;13.006;2024-03-23T10:02:03;4.88;;;2.00;;
28862;SDS011;15994;51.796;13.006;2024-03-23T10:04:35;4.45;;;1.80;;
28862;SDS011;15994;51.796;13.006;2024-03-23T10:07:17;8.60;;;2.53;;
28862;SDS011;15994;51.796;13.006;2024-03-23T10:09:43;7.30;;;2.05;;
28862;SDS011;15994;51.796;13.006;2024-03-23T10:12:11;7.10;;;2.50;;
28862;SDS011;15994;51.796;13.006;2024-03-23T10:14:38;9.23;;;2.45;;
28862;SDS011;15994;51.796;13.006;2024-03-23T10:17:15;8.38;;;1.85;;
28862;SDS011;15994;51.796;13.006;2024-03-23T10:19:43;9.70;;;1.88;;
28862;SDS011;15994;51.796;13.006;2024-03-23T10:22:12;5.60;;;1.85;;
28862;SDS011;15994;51.796;13.006;2024-03-23T10:24:38;7.80;;;1.80;;
28862;SDS011;15994;51.796;13.006;2024-03-23T10:27:05;4.70;;;1.65;;
28862;SDS011;15994;51.796;13.006;2024-03-23T10:29:31;7.93;;;1.40;;
28862;SDS011;15994;51.796;13.006;2024-03-23T10:32:10;4.45;;;1.40;;
28862;SDS011;15994;51.796;13.006;2024-03-23T10:34:37;6.18;;;1.30;;
28862;SDS011;15994;51.796;13.006;2024-03-23T10:37:05;5.68;;;1.45;;
28862;SDS011;15994;51.796;13.006;2024-03-23T10:42:04;4.50;;;1.23;;
28862;SDS011;15994;51.796;13.006;2024-03-23T10:44:31;5.80;;;1.35;;
28862;SDS011;15994;51.796;13.006;2024-03-23T10:46:58;4.70;;;1.30;;
28862;SDS011;15994;51.796;13.006;2024-03-23T10:49:31;4.47;;;1.40;;
28862;SDS011;15994;51.796;13.006;2024-03-23T10:52:02;3.90;;;1.15;;
28862;SDS011;15994;51.796;13.006;2024-03-23T10:54:29;3.03;;;1.30;;
28862;SDS011;15994;51.796;13.006;2024-03-23T10:57:01;4.82;;;1.20;;
28862;SDS011;15994;51.796;13.006;2024-03-23T10:59:29;5.05;;;1.30;;
28862;SDS011;15994;51.796;13.006;2024-03-23T11:01:56;3.30;;;1.20;;
28862;SDS011;15994;51.796;13.006;2024-03-23T11:04:32;3.65;;;1.10;;
28862;SDS011;15994;51.796;13.006;2024-03-23T11:06:59;2.70;;;0.88;;
28862;SDS011;15994;51.796;13.006;2024-03-23T11:09:38;2.05;;;1.00;;
28862;SDS011;15994;51.796;13.006;2024-03-23T11:12:17;4.88;;;1.00;;
28862;SDS011;15994;51.796;13.006;2024-03-23T11:14:53;4.90;;;1.63;;
28862;SDS011;15994;51.796;13.006;2024-03-23T11:17:21;3.83;;;1.50;;
28862;SDS011;15994;51.796;13.006;2024-03-23T11:19:57;3.38;;;1.40;;
28862;SDS011;15994;51.796;13.006;2024-03-23T11:25:19;7.25;;;2.28;;
28862;SDS011;15994;51.796;13.006;2024-03-23T11:27:47;5.32;;;2.00;;
28862;SDS011;15994;51.796;13.006;2024-03-23T11:32:47;9.52;;;2.60;;
28862;SDS011;15994;51.796;13.006;2024-03-23T11:35:27;11.05;;;2.60;;
28862;SDS011;15994;51.796;13.006;2024-03-23T11:40:29;15.02;;;2.90;;
28862;SDS011;15994;51.796;13.006;2024-03-23T11:43:00;11.00;;;2.30;;
28862;SDS011;15994;51.796;13.006;2024-03-23T11:45:27;11.23;;;2.90;;
28862;SDS011;15994;51.796;13.006;2024-03-23T11:50:33;10.13;;;2.08;;
28862;SDS011;15994;51.796;13.006;2024-03-23T11:53:07;10.63;;;2.90;;
28862;SDS011;15994;51.796;13.006;2024-03-23T11:56:06;11.23;;;2.60;;
28862;SDS011;15994;51.796;13.006;2024-03-23T11:58:27;14.93;;;3.08;;
28862;SDS011;15994;51.796;13.006;2024-03-23T12:00:55;12.88;;;2.80;;
28862;SDS011;15994;51.796;13.006;2024-03-23T12:03:22;16.25;;;3.70;;
28862;SDS011;15994;51.796;13.006;2024-03-23T12:05:51;12.85;;;3.70;;
28862;SDS011;15994;51.796;13.006;2024-03-23T12:11:10;10.13;;;4.07;;
28862;SDS011;15994;51.796;13.006;2024-03-23T12:13:38;16.08;;;4.50;;
28862;SDS011;15994;51.796;13.006;2024-03-23T12:16:13;17.15;;;4.47;;
28862;SDS011;15994;51.796;13.006;2024-03-23T12:18:41;17.13;;;4.18;;
28862;SDS011;15994;51.796;13.006;2024-03-23T12:21:07;10.48;;;3.40;;
28862;SDS011;15994;51.796;13.006;2024-03-23T12:23:34;17.90;;;4.68;;
28862;SDS011;15994;51.796;13.006;2024-03-23T12:26:01;10.15;;;3.75;;
28862;SDS011;15994;51.796;13.006;2024-03-23T12:28:28;15.25;;;3.90;;
28862;SDS011;15994;51.796;13.006;2024-03-23T12:30:54;10.80;;;3.65;;
28862;SDS011;15994;51.796;13.006;2024-03-23T12:33:21;14.45;;;3.58;;
28862;SDS011;15994;51.796;13.006;2024-03-23T12:35:48;13.07;;;4.00;;
28862;SDS011;15994;51.796;13.006;2024-03-23T12:38:15;15.00;;;4.53;;
28862;SDS011;15994;51.796;13.006;2024-03-23T12:40:41;11.07;;;2.90;;
28862;SDS011;15994;51.796;13.006;2024-03-23T12:43:08;15.50;;;3.80;;
28862;SDS011;15994;51.796;13.006;2024-03-23T12:45:34;12.45;;;3.60;;
28862;SDS011;15994;51.796;13.006;2024-03-23T12:48:00;13.48;;;3.83;;
28862;SDS011;15994;51.796;13.006;2024-03-23T12:50:26;13.18;;;4.28;;
28862;SDS011;15994;51.796;13.006;2024-03-23T12:52:53;13.60;;;4.25;;
28862;SDS011;15994;51.796;13.006;2024-03-23T12:55:19;16.23;;;4.18;;
28862;SDS011;15994;51.796;13.006;2024-03-23T12:57:46;17.20;;;4.55;;
28862;SDS011;15994;51.796;13.006;2024-03-23T13:00:13;18.02;;;4.07;;
28862;SDS011;15994;51.796;13.006;2024-03-23T13:02:42;14.00;;;3.40;;
28862;SDS011;15994;51.796;13.006;2024-03-23T13:05:08;16.25;;;4.00;;
28862;SDS011;15994;51.796;13.006;2024-03-23T13:07:36;18.38;;;4.35;;
28862;SDS011;15994;51.796;13.006;2024-03-23T13:10:03;14.13;;;4.20;;
28862;SDS011;15994;51.796;13.006;2024-03-23T13:12:31;12.68;;;3.78;;
28862;SDS011;15994;51.796;13.006;2024-03-23T13:14:57;21.30;;;4.68;;
28862;SDS011;15994;51.796;13.006;2024-03-23T13:17:25;15.30;;;3.58;;
28862;SDS011;15994;51.796;13.006;2024-03-23T13:19:52;13.98;;;3.63;;
28862;SDS011;15994;51.796;13.006;2024-03-23T13:22:19;13.40;;;3.55;;
28862;SDS011;15994;51.796;13.006;2024-03-23T13:24:45;12.90;;;3.67;;
28862;SDS011;15994;51.796;13.006;2024-03-23T13:27:12;13.35;;;3.33;;
28862;SDS011;15994;51.796;13.006;2024-03-23T13:29:38;14.30;;;3.17;;
28862;SDS011;15994;51.796;13.006;2024-03-23T13:32:06;14.27;;;3.35;;
28862;SDS011;15994;51.796;13.006;2024-03-23T13:34:32;11.35;;;3.17;;
28862;SDS011;15994;51.796;13.006;2024-03-23T13:37:00;11.73;;;3.15;;
28862;SDS011;15994;51.796;13.006;2024-03-23T13:39:26;15.00;;;3.20;;
28862;SDS011;15994;51.796;13.006;2024-03-23T13:41:53;12.20;;;3.20;;
28862;SDS011;15994;51.796;13.006;2024-03-23T13:44:21;9.73;;;2.55;;
28862;SDS011;15994;51.796;13.006;2024-03-23T13:46:48;10.43;;;3.00;;
28862;SDS011;15994;51.796;13.006;2024-03-23T13:51:57;16.05;;;3.58;;
28862;SDS011;15994;51.796;13.006;2024-03-23T13:54:23;9.88;;;3.15;;
28862;SDS011;15994;51.796;13.006;2024-03-23T13:56:50;14.10;;;3.80;;
28862;SDS011;15994;51.796;13.006;2024-03-23T13:59:16;13.88;;;4.22;;
28862;SDS011;15994;51.796;13.006;2024-03-23T14:01:44;13.50;;;3.95;;
28862;SDS011;15994;51.796;13.006;2024-03-23T14:04:10;14.55;;;4.20;;
28862;SDS011;15994;51.796;13.006;2024-03-23T14:06:37;15.65;;;4.05;;
28862;SDS011;15994;51.796;13.006;2024-03-23T14:09:04;16.67;;;4.82;;
28862;SDS011;15994;51.796;13.006;2024-03-23T14:11:33;14.20;;;4.43;;
28862;SDS011;15994;51.796;13.006;2024-03-23T14:13:59;11.95;;;4.45;;
28862;SDS011;15994;51.796;13.006;2024-03-23T14:16:26;16.10;;;4.93;;
28862;SDS011;15994;51.796;13.006;2024-03-23T14:18:52;15.00;;;4.97;;
28862;SDS011;15994;51.796;13.006;2024-03-23T14:21:19;12.38;;;4.85;;
28862;SDS011;15994;51.796;13.006;2024-03-23T14:23:45;12.75;;;3.58;;
28862;SDS011;15994;51.796;13.006;2024-03-23T14:26:12;10.20;;;3.10;;
28862;SDS011;15994;51.796;13.006;2024-03-23T14:28:38;8.20;;;2.30;;
28862;SDS011;15994;51.796;13.006;2024-03-23T14:31:06;10.35;;;1.98;;
28862;SDS011;15994;51.796;13.006;2024-03-23T14:33:35;7.75;;;2.25;;
28862;SDS011;15994;51.796;13.006;2024-03-23T14:36:02;7.20;;;2.00;;
28862;SDS011;15994;51.796;13.006;2024-03-23T14:38:28;6.38;;;1.95;;
28862;SDS011;15994;51.796;13.006;2024-03-23T14:40:59;6.97;;;2.10;;
28862;SDS011;15994;51.796;13.006;2024-03-23T14:43:27;5.72;;;2.05;;
28862;SDS011;15994;51.796;13.006;2024-03-23T14:48:33;7.07;;;2.30;;
28862;SDS011;15994;51.796;13.006;2024-03-23T14:51:00;8.55;;;2.58;;
28862;SDS011;15994;51.796;13.006;2024-03-23T14:53:28;10.65;;;3.00;;
28862;SDS011;15994;51.796;13.006;2024-03-23T14:55:56;8.98;;;2.80;;
28862;SDS011;15994;51.796;13.006;2024-03-23T14:58:22;9.90;;;2.53;;
28862;SDS011;15994;51.796;13.006;2024-03-23T15:00:49;6.90;;;2.47;;
28862;SDS011;15994;51.796;13.006;2024-03-23T15:03:16;7.43;;;2.47;;
28862;SDS011;15994;51.796;13.006;2024-03-23T15:05:56;10.13;;;2.30;;
28862;SDS011;15994;51.796;13.006;2024-03-23T15:08:22;7.30;;;2.53;;
28862;SDS011;15994;51.796;13.006;2024-03-23T15:10:49;8.88;;;4.47;;
28862;SDS011;15994;51.796;13.006;2024-03-23T15:13:16;6.70;;;2.50;;
28862;SDS011;15994;51.796;13.006;2024-03-23T15:15:43;7.97;;;2.00;;
28862;SDS011;15994;51.796;13.006;2024-03-23T15:18:12;4.80;;;1.98;;
28862;SDS011;15994;51.796;13.006;2024-03-23T15:20:42;6.65;;;2.20;;
28862;SDS011;15994;51.796;13.006;2024-03-23T15:23:16;7.07;;;2.30;;
28862;SDS011;15994;51.796;13.006;2024-03-23T15:25:44;5.38;;;2.00;;
28862;SDS011;15994;51.796;13.006;2024-03-23T15:28:10;5.35;;;1.85;;
28862;SDS011;15994;51.796;13.006;2024-03-23T15:30:38;10.65;;;4.03;;
28862;SDS011;15994;51.796;13.006;2024-03-23T15:33:05;10.50;;;4.22;;
28862;SDS011;15994;51.796;13.006;2024-03-23T15:35:34;7.15;;;2.67;;
28862;SDS011;15994;51.796;13.006;2024-03-23T15:38:03;7.28;;;3.05;;
28862;SDS011;15994;51.796;13.006;2024-03-23T15:40:31;7.88;;;3.55;;
28862;SDS011;15994;51.796;13.006;2024-03-23T15:43:00;7.57;;;3.50;;